City Of Cleveland — WDC2358 — position and weather

sailwx.info

Track history (hours):
 
Tides and Currents Weather Stations Pressure Air Temp Water Temp Dewpoint Dewpoint Depression Visibility Wind Speed Wind Dir Waves Ship Positions

City Of Cleveland

Owner: JANTRAN, INC., ROSEDALE, MS. More information available from US FCC via Universal Licensing System and Coast Guard Vessel Documentation Center.

Last reported at 2016-Jul-27 00:04 UTC. Time now 2016-Jul-30 11:08 UTC.
Position N 32°41' W 091°05'.

Length 42 m; draft 12.5 m.

Type: Towing. MMSI: 366991810.

Date/timePositionNaut miles runAvg speedWind from/ knotsBaromVisibWave heightAir tempDewpointWater temp
2016-Jul-27 00:04N 32°41' W 091°05'3 4.5
2016-Jul-26 23:30N 32°40' W 091°08'4 4.0
2016-Jul-26 22:33N 32°36' W 091°08'4 4.4
2016-Jul-26 21:33N 32°32' W 091°06'5 4.6
2016-Jul-26 20:33N 32°27' W 091°05'5 4.9
2016-Jul-26 19:34N 32°25' W 090°60'4 4.0
2016-Jul-26 18:33N 32°21' W 090°59'5 4.7
2016-Jul-26 17:33N 32°20' W 090°54'2 2.1
2016-Jul-26 16:33N 32°18' W 090°55'0 0.0
2016-Jul-26 15:33N 32°18' W 090°55'2 1.7
2016-Jul-26 14:34N 32°17' W 090°57'4 4.2
2016-Jul-26 13:33N 32°13' W 090°59'5 4.7
2016-Jul-26 12:33N 32°09' W 091°00'4 4.0
2016-Jul-26 11:33N 32°08' W 091°05'5 2.6
2016-Jul-26 09:33N 32°03' W 091°04'5 4.9
2016-Jul-26 08:32N 31°59' W 091°07'9 4.4
2016-Jul-26 06:28N 31°52' W 091°14'  
2016-Jul-23 14:30N 29°56' W 090°12'3 3.4
2016-Jul-23 13:33N 29°55' W 090°08'5 4.8
2016-Jul-23 12:33N 29°57' W 090°03'4 3.8
2016-Jul-23 11:34N 29°56' W 089°59'0 0.0
2016-Jul-23 10:34N 29°56' W 089°59'0 0.0
2016-Jul-23 09:34N 29°56' W 089°59'0 0.0
2016-Jul-23 08:33N 29°56' W 089°59'0 0.0
2016-Jul-23 07:34N 29°56' W 089°59'0 0.0
2016-Jul-23 06:34N 29°56' W 089°59'0 0.0
2016-Jul-23 04:34N 29°56' W 089°59'0 0.0
2016-Jul-23 03:34N 29°56' W 089°59'0 0.0
2016-Jul-23 02:34N 29°56' W 089°59'0 0.1
2016-Jul-23 01:34N 29°56' W 089°59'5 4.4
2016-Jul-23 00:20N 29°52' W 089°55'4 4.7
2016-Jul-22 23:33N 29°51' W 089°59'3 3.1
2016-Jul-22 22:33N 29°48' W 090°01'0 0.0
2016-Jul-22 21:34N 29°48' W 090°01'0 0.0
2016-Jul-22 20:33N 29°48' W 090°01'0 0.0
2016-Jul-22 19:33N 29°48' W 090°01'0 0.1
2016-Jul-22 18:33N 29°48' W 090°01'4 0.2
2016-Jul-22 02:16N 29°44' W 090°00'4 6.3
2016-Jul-22 01:34N 29°49' W 090°00'5 5.4
2016-Jul-22 00:34N 29°52' W 089°55'3 3.1
2016-Jul-21 23:34N 29°55' W 089°55'0 0.0
2016-Jul-21 22:33N 29°55' W 089°55'0 0.0
2016-Jul-21 21:34N 29°55' W 089°55'0 0.0
2016-Jul-21 20:33N 29°55' W 089°55'0 0.0
2016-Jul-21 19:33N 29°55' W 089°55'0 0.0
2016-Jul-21 18:33N 29°55' W 089°55'0 0.0
2016-Jul-21 17:34N 29°55' W 089°55'0 0.0
2016-Jul-21 16:33N 29°55' W 089°55'0 0.0
2016-Jul-21 15:33N 29°55' W 089°55'0 0.0
2016-Jul-21 14:33N 29°55' W 089°55'0 0.0
2016-Jul-21 13:33N 29°55' W 089°55'0 0.0
2016-Jul-21 12:34N 29°55' W 089°55'0 0.0
2016-Jul-21 11:33N 29°55' W 089°55'0 0.0
2016-Jul-21 10:33N 29°55' W 089°55'0 0.0
2016-Jul-21 09:33N 29°55' W 089°55'0 0.0
2016-Jul-21 08:34N 29°55' W 089°55'0 0.0
2016-Jul-21 07:34N 29°55' W 089°55'0 0.0
2016-Jul-21 06:34N 29°55' W 089°55'0 0.0
2016-Jul-21 05:34N 29°55' W 089°55'0 0.0
2016-Jul-21 04:33N 29°55' W 089°55'0 0.0
2016-Jul-21 03:33N 29°55' W 089°55'0 0.0
2016-Jul-21 02:33N 29°55' W 089°55'0 0.0
2016-Jul-21 01:33N 29°55' W 089°55'0 0.0
2016-Jul-21 00:33N 29°55' W 089°55'0 0.0
2016-Jul-20 23:33N 29°55' W 089°55'0 0.0
2016-Jul-20 22:33N 29°55' W 089°55'0 0.0
2016-Jul-20 21:33N 29°55' W 089°55'0 0.0
2016-Jul-20 20:33N 29°55' W 089°55'0 0.0
2016-Jul-20 19:34N 29°55' W 089°55'0 0.0
2016-Jul-20 18:33N 29°55' W 089°55'0 0.0
2016-Jul-20 17:34N 29°55' W 089°55'0 0.0
2016-Jul-20 16:34N 29°55' W 089°55'0 0.0
2016-Jul-20 15:33N 29°55' W 089°55'0 0.0
2016-Jul-20 14:34N 29°55' W 089°55'0 0.0
2016-Jul-20 13:33N 29°55' W 089°55'0 0.0
2016-Jul-20 12:33N 29°55' W 089°55'0 0.0
2016-Jul-20 11:33N 29°55' W 089°55'0 0.0
2016-Jul-20 10:33N 29°55' W 089°55'4 3.9
2016-Jul-20 09:34N 29°56' W 089°60'5 5.4
2016-Jul-20 08:34N 29°55' W 090°06'4 4.4
2016-Jul-20 07:34N 29°57' W 090°10'  
2016-Jul-17 09:33N 31°60' W 091°06'7 7.0
2016-Jul-17 08:33N 32°07' W 091°06'5 5.1
2016-Jul-17 07:30N 32°08' W 091°00'8 7.9
2016-Jul-17 06:31N 32°16' W 090°58'10 5.2
2016-Jul-17 04:33N 32°26' W 091°01'7 6.8
2016-Jul-17 03:33N 32°31' W 091°06'9 7.3
2016-Jul-17 02:20N 32°40' W 091°08'  
Track history (hours):
 
Tides and Currents Weather Stations Pressure Air Temp Water Temp Dewpoint Dewpoint Depression Visibility Wind Speed Wind Dir Waves Ship Positions

City Of Cleveland

Owner: JANTRAN, INC., ROSEDALE, MS. More information available from US FCC via Universal Licensing System and Coast Guard Vessel Documentation Center.

Last reported at 2016-Jul-27 00:04 UTC. Time now 2016-Jul-30 11:08 UTC.
Position N 32°41' W 091°05'.

Length 42 m; draft 12.5 m.

Type: Towing. MMSI: 366991810.

Date/timePositionNaut miles runAvg speedWind from/ knotsBaromVisibWave heightAir tempDewpointWater temp
2016-Jul-27 00:04N 32°41' W 091°05'3 4.5
2016-Jul-26 23:30N 32°40' W 091°08'4 4.0
2016-Jul-26 22:33N 32°36' W 091°08'4 4.4
2016-Jul-26 21:33N 32°32' W 091°06'5 4.6
2016-Jul-26 20:33N 32°27' W 091°05'5 4.9
2016-Jul-26 19:34N 32°25' W 090°60'4 4.0
2016-Jul-26 18:33N 32°21' W 090°59'5 4.7
2016-Jul-26 17:33N 32°20' W 090°54'2 2.1
2016-Jul-26 16:33N 32°18' W 090°55'0 0.0
2016-Jul-26 15:33N 32°18' W 090°55'2 1.7
2016-Jul-26 14:34N 32°17' W 090°57'4 4.2
2016-Jul-26 13:33N 32°13' W 090°59'5 4.7
2016-Jul-26 12:33N 32°09' W 091°00'4 4.0
2016-Jul-26 11:33N 32°08' W 091°05'5 2.6
2016-Jul-26 09:33N 32°03' W 091°04'5 4.9
2016-Jul-26 08:32N 31°59' W 091°07'9 4.4
2016-Jul-26 06:28N 31°52' W 091°14'  
2016-Jul-23 14:30N 29°56' W 090°12'3 3.4
2016-Jul-23 13:33N 29°55' W 090°08'5 4.8
2016-Jul-23 12:33N 29°57' W 090°03'4 3.8
2016-Jul-23 11:34N 29°56' W 089°59'0 0.0
2016-Jul-23 10:34N 29°56' W 089°59'0 0.0
2016-Jul-23 09:34N 29°56' W 089°59'0 0.0
2016-Jul-23 08:33N 29°56' W 089°59'0 0.0
2016-Jul-23 07:34N 29°56' W 089°59'0 0.0
2016-Jul-23 06:34N 29°56' W 089°59'0 0.0
2016-Jul-23 04:34N 29°56' W 089°59'0 0.0
2016-Jul-23 03:34N 29°56' W 089°59'0 0.0
2016-Jul-23 02:34N 29°56' W 089°59'0 0.1
2016-Jul-23 01:34N 29°56' W 089°59'5 4.4
2016-Jul-23 00:20N 29°52' W 089°55'4 4.7
2016-Jul-22 23:33N 29°51' W 089°59'3 3.1
2016-Jul-22 22:33N 29°48' W 090°01'0 0.0
2016-Jul-22 21:34N 29°48' W 090°01'0 0.0
2016-Jul-22 20:33N 29°48' W 090°01'0 0.0
2016-Jul-22 19:33N 29°48' W 090°01'0 0.1
2016-Jul-22 18:33N 29°48' W 090°01'4 0.2
2016-Jul-22 02:16N 29°44' W 090°00'4 6.3
2016-Jul-22 01:34N 29°49' W 090°00'5 5.4
2016-Jul-22 00:34N 29°52' W 089°55'3 3.1
2016-Jul-21 23:34N 29°55' W 089°55'0 0.0
2016-Jul-21 22:33N 29°55' W 089°55'0 0.0
2016-Jul-21 21:34N 29°55' W 089°55'0 0.0
2016-Jul-21 20:33N 29°55' W 089°55'0 0.0
2016-Jul-21 19:33N 29°55' W 089°55'0 0.0
2016-Jul-21 18:33N 29°55' W 089°55'0 0.0
2016-Jul-21 17:34N 29°55' W 089°55'0 0.0
2016-Jul-21 16:33N 29°55' W 089°55'0 0.0
2016-Jul-21 15:33N 29°55' W 089°55'0 0.0
2016-Jul-21 14:33N 29°55' W 089°55'0 0.0
2016-Jul-21 13:33N 29°55' W 089°55'0 0.0
2016-Jul-21 12:34N 29°55' W 089°55'0 0.0
2016-Jul-21 11:33N 29°55' W 089°55'0 0.0
2016-Jul-21 10:33N 29°55' W 089°55'0 0.0
2016-Jul-21 09:33N 29°55' W 089°55'0 0.0
2016-Jul-21 08:34N 29°55' W 089°55'0 0.0
2016-Jul-21 07:34N 29°55' W 089°55'0 0.0
2016-Jul-21 06:34N 29°55' W 089°55'0 0.0
2016-Jul-21 05:34N 29°55' W 089°55'0 0.0
2016-Jul-21 04:33N 29°55' W 089°55'0 0.0
2016-Jul-21 03:33N 29°55' W 089°55'0 0.0
2016-Jul-21 02:33N 29°55' W 089°55'0 0.0
2016-Jul-21 01:33N 29°55' W 089°55'0 0.0
2016-Jul-21 00:33N 29°55' W 089°55'0 0.0
2016-Jul-20 23:33N 29°55' W 089°55'0 0.0
2016-Jul-20 22:33N 29°55' W 089°55'0 0.0
2016-Jul-20 21:33N 29°55' W 089°55'0 0.0
2016-Jul-20 20:33N 29°55' W 089°55'0 0.0
2016-Jul-20 19:34N 29°55' W 089°55'0 0.0
2016-Jul-20 18:33N 29°55' W 089°55'0 0.0
2016-Jul-20 17:34N 29°55' W 089°55'0 0.0
2016-Jul-20 16:34N 29°55' W 089°55'0 0.0
2016-Jul-20 15:33N 29°55' W 089°55'0 0.0
2016-Jul-20 14:34N 29°55' W 089°55'0 0.0
2016-Jul-20 13:33N 29°55' W 089°55'0 0.0
2016-Jul-20 12:33N 29°55' W 089°55'0 0.0
2016-Jul-20 11:33N 29°55' W 089°55'0 0.0
2016-Jul-20 10:33N 29°55' W 089°55'4 3.9
2016-Jul-20 09:34N 29°56' W 089°60'5 5.4
2016-Jul-20 08:34N 29°55' W 090°06'4 4.4
2016-Jul-20 07:34N 29°57' W 090°10'  
2016-Jul-17 09:33N 31°60' W 091°06'7 7.0
2016-Jul-17 08:33N 32°07' W 091°06'5 5.1
2016-Jul-17 07:30N 32°08' W 091°00'8 7.9
2016-Jul-17 06:31N 32°16' W 090°58'10 5.2
2016-Jul-17 04:33N 32°26' W 091°01'7 6.8
2016-Jul-17 03:33N 32°31' W 091°06'9 7.3
2016-Jul-17 02:20N 32°40' W 091°08'  

Dump ship's entire track history